Time;durP1;ratioP1;P1;durP2;ratioP2;P2;SDS_P1;SDS_P2;PMS_P1;PMS_P2;Temp;Humidity;BMP_temperature;BMP_pressure;BME280_temperature;BME280_humidity;BME280_pressure;Samples;Min_cycle;Max_cycle;Signal;HPM_P1;HPM_P2
2022/03/03 00:02:07;;;;;;;15.48;4.93;;;;;;;;;;5110789;28;20065;-88
2022/03/03 00:04:33;;;;;;;9.45;4.43;;;;;;;;;;5112494;28;20399;-86
2022/03/03 00:06:59;;;;;;;15.38;5.00;;;;;;;;;;5111478;28;20019;-87
2022/03/03 00:09:25;;;;;;;13.18;4.78;;;;;;;;;;5110210;28;20031;-87
2022/03/03 00:11:51;;;;;;;11.18;4.80;;;;;;;;;;5111374;28;20020;-88
2022/03/03 00:14:17;;;;;;;11.43;5.20;;;;;;;;;;5111508;28;20019;-87
2022/03/03 00:16:43;;;;;;;13.57;4.97;;;;;;;;;;5110026;28;20028;-88
2022/03/03 00:19:09;;;;;;;10.98;4.57;;;;;;;;;;5111252;28;20024;-87
2022/03/03 00:21:36;;;;;;;12.45;5.25;;;;;;;;;;5112002;28;20062;-87
2022/03/03 00:24:02;;;;;;;15.05;5.40;;;;;;;;;;5109869;28;20039;-87
2022/03/03 00:26:28;;;;;;;11.25;4.72;;;;;;;;;;5110998;28;20331;-87
2022/03/03 00:28:54;;;;;;;10.77;4.65;;;;;;;;;;5111036;28;20546;-87
2022/03/03 00:31:20;;;;;;;11.85;5.30;;;;;;;;;;5111005;28;20023;-87
2022/03/03 00:33:46;;;;;;;8.93;4.60;;;;;;;;;;5111026;28;20027;-87
2022/03/03 00:36:12;;;;;;;12.70;5.07;;;;;;;;;;5109506;28;20085;-87
2022/03/03 00:38:38;;;;;;;9.23;4.55;;;;;;;;;;5111640;27;20050;-88
2022/03/03 00:41:04;;;;;;;8.55;4.43;;;;;;;;;;5111705;28;20024;-87
2022/03/03 00:43:31;;;;;;;9.05;4.78;;;;;;;;;;5110659;28;20027;-87
2022/03/03 00:45:57;;;;;;;9.80;5.03;;;;;;;;;;5110748;28;20024;-87
2022/03/03 00:48:23;;;;;;;12.82;5.45;;;;;;;;;;5109411;28;20034;-87
2022/03/03 00:50:49;;;;;;;16.08;5.88;;;;;;;;;;5110398;28;20020;-87
2022/03/03 00:53:15;;;;;;;14.48;6.43;;;;;;;;;;5110603;28;20539;-86
2022/03/03 00:55:41;;;;;;;10.50;6.20;;;;;;;;;;5110546;28;20049;-88
2022/03/03 00:58:07;;;;;;;18.00;7.45;;;;;;;;;;5111210;28;20036;-87
2022/03/03 01:00:33;;;;;;;14.07;7.30;;;;;;;;;;5110518;28;20111;-88
2022/03/03 01:02:59;;;;;;;12.57;7.45;;;;;;;;;;5110341;28;20034;-89
2022/03/03 01:05:25;;;;;;;17.77;8.02;;;;;;;;;;5109120;28;20486;-88
2022/03/03 01:07:51;;;;;;;14.57;8.35;;;;;;;;;;5110337;28;20020;-89
2022/03/03 01:10:18;;;;;;;14.32;8.60;;;;;;;;;;5110188;28;20031;-89
2022/03/03 01:12:44;;;;;;;17.95;9.85;;;;;;;;;;5108973;28;20103;-89
2022/03/03 01:15:10;;;;;;;15.63;9.38;;;;;;;;;;5110120;28;20020;-89
2022/03/03 01:17:37;;;;;;;15.00;9.68;;;;;;;;;;5109847;28;20032;-88
2022/03/03 01:20:04;;;;;;;16.90;9.68;;;;;;;;;;5110172;28;20046;-89
2022/03/03 01:22:30;;;;;;;15.32;9.77;;;;;;;;;;5109985;28;20028;-88
2022/03/03 01:24:56;;;;;;;17.88;9.45;;;;;;;;;;5108700;28;20027;-87
2022/03/03 01:27:22;;;;;;;14.55;9.23;;;;;;;;;;5109942;28;20061;-87
2022/03/03 01:29:48;;;;;;;14.23;9.25;;;;;;;;;;5109981;28;20020;-88
2022/03/03 01:32:14;;;;;;;16.77;9.90;;;;;;;;;;5109921;28;20020;-88
2022/03/03 01:34:40;;;;;;;16.48;9.10;;;;;;;;;;5110665;28;20051;-88
2022/03/03 01:37:06;;;;;;;17.45;9.77;;;;;;;;;;5109860;28;20026;-88
2022/03/03 01:39:32;;;;;;;15.77;10.05;;;;;;;;;;5108338;28;20670;-88
2022/03/03 01:41:58;;;;;;;20.10;9.55;;;;;;;;;;5108443;28;20042;-88
2022/03/03 01:44:25;;;;;;;17.13;9.57;;;;;;;;;;5109677;28;20039;-88
2022/03/03 01:46:55;;;;;;;15.98;8.55;;;;;;;;;;5108311;28;20062;-87
2022/03/03 01:49:21;;;;;;;17.42;9.27;;;;;;;;;;5109613;28;20027;-88
2022/03/03 01:51:47;;;;;;;14.63;9.15;;;;;;;;;;5109697;28;20023;-87
2022/03/03 01:54:14;;;;;;;13.38;9.00;;;;;;;;;;5109670;28;20047;-88
2022/03/03 01:56:41;;;;;;;15.52;9.15;;;;;;;;;;5110155;28;20442;-87
2022/03/03 01:59:07;;;;;;;15.50;9.38;;;;;;;;;;5109619;28;20144;-88
2022/03/03 02:01:33;;;;;;;15.15;8.95;;;;;;;;;;5108027;28;20340;-87
2022/03/03 02:03:59;;;;;;;14.00;9.68;;;;;;;;;;5109282;28;20119;-87
2022/03/03 02:06:25;;;;;;;17.63;10.18;;;;;;;;;;5109482;28;20027;-88
2022/03/03 02:08:55;;;;;;;19.45;10.15;;;;;;;;;;5108050;28;20031;-88
2022/03/03 02:11:21;;;;;;;20.35;10.32;;;;;;;;;;5109441;28;20027;-88
2022/03/03 02:13:47;;;;;;;17.63;10.30;;;;;;;;;;5108026;28;20073;-87
2022/03/03 02:16:13;;;;;;;18.35;9.13;;;;;;;;;;5108172;28;20392;-89
2022/03/03 02:18:43;;;;;;;12.40;8.80;;;;;;;;;;5109964;28;20472;-88
2022/03/03 02:21:10;;;;;;;16.85;9.15;;;;;;;;;;5108589;28;20395;-88
2022/03/03 02:23:36;;;;;;;17.77;9.10;;;;;;;;;;5107812;28;20032;-88
2022/03/03 02:26:03;;;;;;;14.32;8.52;;;;;;;;;;5109214;28;20537;-88
2022/03/03 02:28:29;;;;;;;17.08;8.38;;;;;;;;;;5109190;28;20027;-88
2022/03/03 02:30:55;;;;;;;12.80;7.63;;;;;;;;;;5109037;28;20023;-88
2022/03/03 02:33:21;;;;;;;12.10;7.63;;;;;;;;;;5109125;28;20024;-88
2022/03/03 02:35:47;;;;;;;10.85;7.68;;;;;;;;;;5109114;28;20031;-88
2022/03/03 02:38:13;;;;;;;11.98;7.50;;;;;;;;;;5110056;28;20027;-89
2022/03/03 02:40:39;;;;;;;14.13;7.30;;;;;;;;;;5107822;28;20391;-88
2022/03/03 02:43:06;;;;;;;8.85;6.70;;;;;;;;;;5108918;28;20637;-88
2022/03/03 02:45:32;;;;;;;8.88;6.28;;;;;;;;;;5109023;28;20035;-88
2022/03/03 02:47:58;;;;;;;12.55;6.95;;;;;;;;;;5109071;28;20022;-88
2022/03/03 02:50:25;;;;;;;10.13;6.97;;;;;;;;;;5109002;28;20391;-88
2022/03/03 02:52:51;;;;;;;12.23;6.70;;;;;;;;;;5109037;28;20471;-88
2022/03/03 02:55:17;;;;;;;13.07;6.50;;;;;;;;;;5109001;28;20023;-88
2022/03/03 02:57:58;;;;;;;8.13;6.03;;;;;;;;;;5108310;28;20031;-88
2022/03/03 03:00:31;;;;;;;10.65;6.35;;;;;;;;;;5108952;28;20039;-87
2022/03/03 03:02:57;;;;;;;10.82;6.20;;;;;;;;;;5108818;28;20043;-88
2022/03/03 03:05:24;;;;;;;9.23;6.00;;;;;;;;;;5107648;28;20087;-88
2022/03/03 03:07:50;;;;;;;9.45;6.20;;;;;;;;;;5107668;28;20467;-87
2022/03/03 03:10:16;;;;;;;11.43;6.22;;;;;;;;;;5108324;28;20027;-88
2022/03/03 03:12:43;;;;;;;9.82;6.10;;;;;;;;;;5108306;28;20140;-87
2022/03/03 03:15:09;;;;;;;9.02;6.18;;;;;;;;;;5107450;28;20172;-88
2022/03/03 03:17:35;;;;;;;9.70;5.90;;;;;;;;;;5107519;28;20391;-88
2022/03/03 03:20:01;;;;;;;11.52;5.80;;;;;;;;;;5106370;28;20133;-87
2022/03/03 03:22:27;;;;;;;11.35;6.22;;;;;;;;;;5088679;28;20102;-87
2022/03/03 03:24:53;;;;;;;9.63;6.20;;;;;;;;;;5088147;28;20036;-88
2022/03/03 03:27:19;;;;;;;8.77;5.80;;;;;;;;;;5090005;28;20132;-86
2022/03/03 03:29:45;;;;;;;7.68;5.25;;;;;;;;;;5099741;28;20075;-85
2022/03/03 03:32:11;;;;;;;10.73;6.22;;;;;;;;;;5091611;28;20024;-86
2022/03/03 03:34:38;;;;;;;11.23;5.85;;;;;;;;;;5091507;28;20094;-87
2022/03/03 03:37:04;;;;;;;11.75;5.68;;;;;;;;;;5109855;28;20027;-88
2022/03/03 03:39:30;;;;;;;8.50;5.20;;;;;;;;;;5098485;28;20020;-86
2022/03/03 03:41:56;;;;;;;9.25;5.38;;;;;;;;;;5091829;28;20051;-86
2022/03/03 03:44:22;;;;;;;9.18;5.20;;;;;;;;;;5090024;28;20035;-87
2022/03/03 03:46:48;;;;;;;8.57;5.20;;;;;;;;;;5092328;28;20016;-86
2022/03/03 03:49:14;;;;;;;10.27;5.10;;;;;;;;;;5090935;28;20036;-87
2022/03/03 03:51:41;;;;;;;8.07;5.38;;;;;;;;;;5091360;28;20012;-86
2022/03/03 03:54:07;;;;;;;8.70;5.45;;;;;;;;;;5091202;28;20027;-86
2022/03/03 03:56:33;;;;;;;9.18;5.47;;;;;;;;;;5091041;28;20032;-85
2022/03/03 03:58:59;;;;;;;8.55;5.20;;;;;;;;;;5090748;28;20062;-85
2022/03/03 04:01:27;;;;;;;9.02;5.68;;;;;;;;;;5091148;28;20024;-87
2022/03/03 04:03:53;;;;;;;12.73;5.50;;;;;;;;;;5089895;28;20043;-87
2022/03/03 04:06:19;;;;;;;12.60;5.60;;;;;;;;;;5089944;28;20024;-87
2022/03/03 04:08:47;;;;;;;11.50;5.00;;;;;;;;;;5090682;28;20483;-87
2022/03/03 04:11:13;;;;;;;12.95;5.78;;;;;;;;;;5091883;28;20020;-88
2022/03/03 04:13:39;;;;;;;13.73;5.72;;;;;;;;;;5090012;28;20025;-87
2022/03/03 04:16:06;;;;;;;12.35;5.68;;;;;;;;;;5089510;28;20066;-88
2022/03/03 04:18:32;;;;;;;10.68;5.22;;;;;;;;;;5090639;28;20024;-88
2022/03/03 04:20:58;;;;;;;9.57;4.88;;;;;;;;;;5089176;28;20035;-91
2022/03/03 04:23:24;;;;;;;13.13;5.97;;;;;;;;;;5090532;28;20031;-89
2022/03/03 04:25:51;;;;;;;13.40;5.97;;;;;;;;;;5091500;28;20016;-88
2022/03/03 04:28:17;;;;;;;10.35;5.00;;;;;;;;;;5090061;28;20035;-89
2022/03/03 04:30:43;;;;;;;10.52;5.10;;;;;;;;;;5089281;28;20031;-88
2022/03/03 04:33:09;;;;;;;11.55;5.00;;;;;;;;;;5090670;28;20052;-88
2022/03/03 04:35:35;;;;;;;9.85;4.90;;;;;;;;;;5090221;28;20027;-87
2022/03/03 04:38:01;;;;;;;12.05;5.10;;;;;;;;;;5090773;28;20053;-89
2022/03/03 04:40:27;;;;;;;8.25;5.38;;;;;;;;;;5095532;28;20024;-87
2022/03/03 04:42:53;;;;;;;11.90;5.82;;;;;;;;;;5089855;28;20032;-87
2022/03/03 04:45:19;;;;;;;11.30;5.10;;;;;;;;;;5089717;28;20031;-85
2022/03/03 04:47:45;;;;;;;11.95;5.45;;;;;;;;;;5090947;28;20031;-85
2022/03/03 04:50:11;;;;;;;12.57;5.72;;;;;;;;;;5090673;28;20646;-85
2022/03/03 04:52:37;;;;;;;11.13;6.28;;;;;;;;;;5089424;28;20028;-89
2022/03/03 04:55:05;;;;;;;12.30;5.80;;;;;;;;;;5088650;28;20020;-88
2022/03/03 04:57:31;;;;;;;11.10;5.65;;;;;;;;;;5090116;28;20527;-88
2022/03/03 04:59:58;;;;;;;9.73;5.80;;;;;;;;;;5087537;28;20031;-89
2022/03/03 05:02:24;;;;;;;11.32;5.90;;;;;;;;;;5090319;28;20030;-89
2022/03/03 05:04:51;;;;;;;12.02;6.00;;;;;;;;;;5089807;28;20028;-88
2022/03/03 05:07:19;;;;;;;10.88;5.95;;;;;;;;;;5088181;28;20036;-87
2022/03/03 05:09:45;;;;;;;10.73;6.45;;;;;;;;;;5089513;28;20166;-88
2022/03/03 05:12:11;;;;;;;13.82;6.65;;;;;;;;;;5088368;28;20407;-90
2022/03/03 05:14:37;;;;;;;14.18;7.72;;;;;;;;;;5089699;28;20042;-87
2022/03/03 05:17:04;;;;;;;13.73;7.35;;;;;;;;;;5088278;28;20023;-87
2022/03/03 05:19:30;;;;;;;17.83;7.78;;;;;;;;;;5089091;28;20030;-86
2022/03/03 05:21:56;;;;;;;14.23;8.82;;;;;;;;;;5077441;28;20039;-86
2022/03/03 05:24:22;;;;;;;15.40;8.75;;;;;;;;;;5084000;28;20049;-88
2022/03/03 05:26:48;;;;;;;24.15;10.55;;;;;;;;;;5087278;28;20057;-86
2022/03/03 05:29:14;;;;;;;17.02;10.82;;;;;;;;;;5087312;28;20035;-87
2022/03/03 05:31:41;;;;;;;15.73;10.15;;;;;;;;;;5088496;28;20553;-87
2022/03/03 05:34:07;;;;;;;20.20;11.00;;;;;;;;;;5087438;28;20484;-87
2022/03/03 05:36:37;;;;;;;25.90;11.13;;;;;;;;;;5087163;28;20024;-87
2022/03/03 05:39:03;;;;;;;18.48;10.65;;;;;;;;;;5088390;28;20506;-88
2022/03/03 05:41:29;;;;;;;17.50;11.15;;;;;;;;;;5088290;28;20529;-87
2022/03/03 05:43:55;;;;;;;21.67;11.65;;;;;;;;;;5088514;28;20047;-87
2022/03/03 05:46:21;;;;;;;22.35;10.95;;;;;;;;;;5088662;28;20020;-87
2022/03/03 05:48:51;;;;;;;17.63;11.63;;;;;;;;;;5087820;28;20019;-87
2022/03/03 05:51:20;;;;;;;24.33;12.23;;;;;;;;;;5088422;28;20028;-87
2022/03/03 05:53:46;;;;;;;19.55;11.63;;;;;;;;;;5087803;28;20562;-87
2022/03/03 05:56:14;;;;;;;21.88;11.20;;;;;;;;;;5087546;28;20024;-85
2022/03/03 05:58:48;;;;;;;22.73;12.32;;;;;;;;;;5087472;28;20028;-85
2022/03/03 06:01:15;;;;;;;16.48;11.02;;;;;;;;;;5088508;28;20515;-86
2022/03/03 06:03:41;;;;;;;19.88;11.90;;;;;;;;;;5087387;28;20020;-85
2022/03/03 06:06:16;;;;;;;20.52;11.20;;;;;;;;;;5088927;28;20027;-86
2022/03/03 06:08:49;;;;;;;21.83;11.40;;;;;;;;;;5088965;28;20027;-85
2022/03/03 06:11:16;;;;;;;25.25;11.57;;;;;;;;;;5088741;28;20359;-86
2022/03/03 06:13:46;;;;;;;20.42;11.40;;;;;;;;;;5088574;28;20048;-85
2022/03/03 06:16:16;;;;;;;18.92;11.73;;;;;;;;;;5089080;28;20035;-87
2022/03/03 06:18:44;;;;;;;18.42;10.38;;;;;;;;;;5088009;28;20472;-89
2022/03/03 06:21:10;;;;;;;21.02;11.95;;;;;;;;;;5087072;28;20024;-88
2022/03/03 06:23:37;;;;;;;22.55;10.85;;;;;;;;;;5088031;28;20031;-88
2022/03/03 06:26:11;;;;;;;20.25;11.20;;;;;;;;;;5089109;28;20020;-89
2022/03/03 06:28:37;;;;;;;22.88;10.63;;;;;;;;;;5089015;28;20028;-89
2022/03/03 06:31:05;;;;;;;21.95;11.13;;;;;;;;;;5087785;28;20020;-89
2022/03/03 06:33:31;;;;;;;20.75;10.80;;;;;;;;;;5089080;28;20055;-89
2022/03/03 06:35:57;;;;;;;19.08;10.77;;;;;;;;;;5089246;28;20048;-89
2022/03/03 06:38:23;;;;;;;23.02;11.10;;;;;;;;;;5088620;28;20028;-89
2022/03/03 06:40:50;;;;;;;22.77;11.13;;;;;;;;;;5088719;28;20484;-89
2022/03/03 06:43:16;;;;;;;22.60;10.82;;;;;;;;;;5088238;28;20054;-89
2022/03/03 06:45:42;;;;;;;21.30;12.35;;;;;;;;;;5087836;28;20031;-89
2022/03/03 06:48:09;;;;;;;22.00;11.32;;;;;;;;;;5088862;28;20483;-89
2022/03/03 06:50:39;;;;;;;22.58;10.65;;;;;;;;;;5088911;28;20016;-90
2022/03/03 06:53:07;;;;;;;22.60;11.40;;;;;;;;;;5087709;28;20476;-89
2022/03/03 06:55:33;;;;;;;19.48;10.52;;;;;;;;;;5088951;28;20028;-88
2022/03/03 06:58:00;;;;;;;20.63;11.20;;;;;;;;;;5087153;28;20036;-89
2022/03/03 07:00:27;;;;;;;20.60;9.73;;;;;;;;;;5089687;28;20484;-89
2022/03/03 07:02:53;;;;;;;20.30;9.80;;;;;;;;;;5090677;28;20020;-88
2022/03/03 07:05:20;;;;;;;19.08;9.90;;;;;;;;;;5091175;28;20127;-89
2022/03/03 07:07:47;;;;;;;20.95;9.45;;;;;;;;;;5091319;28;20024;-89
2022/03/03 07:10:14;;;;;;;15.07;8.48;;;;;;;;;;5092654;28;20036;-90
2022/03/03 07:12:40;;;;;;;13.82;7.60;;;;;;;;;;5091236;28;20016;-88
2022/03/03 07:15:07;;;;;;;15.55;7.55;;;;;;;;;;5091241;28;20028;-89
2022/03/03 07:17:36;;;;;;;14.50;7.75;;;;;;;;;;5091093;28;20028;-88
2022/03/03 07:20:06;;;;;;;13.68;7.82;;;;;;;;;;5092494;28;20103;-88
2022/03/03 07:22:37;;;;;;;13.60;7.65;;;;;;;;;;5090994;28;20438;-89
2022/03/03 07:25:07;;;;;;;19.52;7.63;;;;;;;;;;5090999;28;20036;-89
2022/03/03 07:27:33;;;;;;;11.57;6.88;;;;;;;;;;5091040;28;20054;-89
2022/03/03 07:30:05;;;;;;;12.35;7.55;;;;;;;;;;5091420;28;20031;-89
2022/03/03 07:32:37;;;;;;;10.30;6.55;;;;;;;;;;5090896;28;20484;-88
2022/03/03 07:35:09;;;;;;;12.70;6.78;;;;;;;;;;5090885;28;20119;-89
2022/03/03 07:37:37;;;;;;;12.27;6.82;;;;;;;;;;5092165;28;20035;-89
2022/03/03 07:40:08;;;;;;;19.20;7.40;;;;;;;;;;5090766;28;20028;-89
2022/03/03 07:42:34;;;;;;;16.80;7.53;;;;;;;;;;5092220;28;20020;-89
2022/03/03 07:45:01;;;;;;;14.95;7.45;;;;;;;;;;5092576;28;20032;-89
2022/03/03 07:47:28;;;;;;;13.57;7.32;;;;;;;;;;5091292;28;20028;-89
2022/03/03 07:49:55;;;;;;;13.02;6.53;;;;;;;;;;5092214;28;20103;-89
2022/03/03 07:52:21;;;;;;;15.65;7.32;;;;;;;;;;5090558;28;20267;-89
2022/03/03 07:54:47;;;;;;;16.27;6.88;;;;;;;;;;5091837;28;20020;-89
2022/03/03 07:57:16;;;;;;;15.00;7.45;;;;;;;;;;5090261;28;20028;-90
2022/03/03 07:59:46;;;;;;;16.15;7.47;;;;;;;;;;5091853;28;20012;-89
2022/03/03 08:02:14;;;;;;;11.93;7.57;;;;;;;;;;5090248;28;20036;-90
2022/03/03 08:04:40;;;;;;;;;;;;;;;;;;5090619;28;20093;-88
2022/03/03 08:07:07;;;;;;;14.10;6.88;;;;;;;;;;5091702;28;19908;-89
2022/03/03 08:09:36;;;;;;;15.43;7.13;;;;;;;;;;5090113;28;20059;-89
2022/03/03 08:12:03;;;;;;;15.63;7.15;;;;;;;;;;5091730;28;20023;-89
2022/03/03 08:14:30;;;;;;;13.13;6.70;;;;;;;;;;5091443;28;20491;-89
2022/03/03 08:16:56;;;;;;;12.43;6.95;;;;;;;;;;5091224;28;20048;-89
2022/03/03 08:19:22;;;;;;;12.18;6.95;;;;;;;;;;5091482;28;20024;-88
2022/03/03 08:21:49;;;;;;;11.43;6.68;;;;;;;;;;5091220;28;20057;-89
2022/03/03 08:24:15;;;;;;;12.43;6.70;;;;;;;;;;5089924;28;20036;-89
2022/03/03 08:26:43;;;;;;;10.57;6.90;;;;;;;;;;5091138;28;20391;-89
2022/03/03 08:29:09;;;;;;;16.85;7.13;;;;;;;;;;5089688;28;20031;-88
2022/03/03 08:31:36;;;;;;;14.07;7.00;;;;;;;;;;5091157;28;20038;-89
2022/03/03 08:34:12;;;;;;;16.98;6.97;;;;;;;;;;5090159;28;20023;-89
2022/03/03 08:36:45;;;;;;;14.18;6.50;;;;;;;;;;5091187;28;20066;-89
2022/03/03 08:39:12;;;;;;;15.13;6.80;;;;;;;;;;5089469;28;20494;-89
2022/03/03 08:41:40;;;;;;;13.93;6.32;;;;;;;;;;5090728;28;20388;-89
2022/03/03 08:44:07;;;;;;;11.35;5.85;;;;;;;;;;5089523;28;20064;-89
2022/03/03 08:46:35;;;;;;;15.10;6.00;;;;;;;;;;5091448;28;20023;-89
2022/03/03 08:49:02;;;;;;;10.07;6.07;;;;;;;;;;5091450;28;20048;-90
2022/03/03 08:51:29;;;;;;;12.02;5.88;;;;;;;;;;5090241;28;20024;-89
2022/03/03 08:53:55;;;;;;;13.23;5.55;;;;;;;;;;5090703;28;20073;-89
2022/03/03 08:56:23;;;;;;;11.82;5.35;;;;;;;;;;5090307;28;20099;-89
2022/03/03 08:58:49;;;;;;;11.57;5.83;;;;;;;;;;5090718;28;20027;-89
2022/03/03 09:01:15;;;;;;;13.40;5.63;;;;;;;;;;5090526;28;20024;-90
2022/03/03 09:03:43;;;;;;;12.57;6.00;;;;;;;;;;5089091;28;20020;-89
2022/03/03 09:06:13;;;;;;;12.33;5.93;;;;;;;;;;5090372;28;20103;-90
2022/03/03 09:08:39;;;;;;;13.77;5.75;;;;;;;;;;5090294;28;20289;-89
2022/03/03 09:11:05;;;;;;;10.23;5.32;;;;;;;;;;5089027;28;20024;-89
2022/03/03 09:13:32;;;;;;;13.73;5.70;;;;;;;;;;5091260;28;20020;-89
2022/03/03 09:15:58;;;;;;;12.30;5.88;;;;;;;;;;5090458;28;20023;-89
2022/03/03 09:18:24;;;;;;;9.95;5.32;;;;;;;;;;5088912;28;20267;-89
2022/03/03 09:20:50;;;;;;;12.60;5.85;;;;;;;;;;5090095;28;20016;-88
2022/03/03 09:23:17;;;;;;;12.73;5.43;;;;;;;;;;5089989;28;20024;-89
2022/03/03 09:25:43;;;;;;;10.15;5.30;;;;;;;;;;5089099;28;20035;-90
2022/03/03 09:28:09;;;;;;;14.63;6.38;;;;;;;;;;5090001;28;20023;-89
2022/03/03 09:30:36;;;;;;;11.57;5.78;;;;;;;;;;5089251;28;20026;-89
2022/03/03 09:33:03;;;;;;;8.05;5.38;;;;;;;;;;5090653;28;20391;-89
2022/03/03 09:35:29;;;;;;;14.13;5.70;;;;;;;;;;5089929;28;20027;-89
2022/03/03 09:37:55;;;;;;;10.70;5.13;;;;;;;;;;5088442;28;20039;-89
2022/03/03 09:40:21;;;;;;;10.93;5.57;;;;;;;;;;5089820;28;20028;-89
2022/03/03 09:43:01;;;;;;;13.90;5.53;;;;;;;;;;5089703;28;20024;-90
2022/03/03 09:45:28;;;;;;;10.90;5.60;;;;;;;;;;5089690;28;20119;-89
2022/03/03 09:47:56;;;;;;;12.18;5.80;;;;;;;;;;5089597;28;20472;-88
2022/03/03 09:50:23;;;;;;;11.63;6.05;;;;;;;;;;5089634;28;20084;-89
2022/03/03 09:52:50;;;;;;;16.30;6.00;;;;;;;;;;5088181;28;20514;-89
2022/03/03 09:55:16;;;;;;;10.15;5.40;;;;;;;;;;5089453;28;20484;-89
2022/03/03 09:57:42;;;;;;;10.98;5.90;;;;;;;;;;5089745;28;20173;-89
2022/03/03 10:00:09;;;;;;;13.50;6.47;;;;;;;;;;5088337;28;20111;-89
2022/03/03 10:02:54;;;;;;;11.23;5.88;;;;;;;;;;5090313;28;20208;-90
2022/03/03 10:05:31;;;;;;;11.10;5.95;;;;;;;;;;5088090;28;20116;-89
2022/03/03 10:08:01;;;;;;;12.15;6.45;;;;;;;;;;5089462;28;20256;-90
2022/03/03 10:10:27;;;;;;;15.52;5.88;;;;;;;;;;5088101;28;20245;-89
2022/03/03 10:12:56;;;;;;;13.73;6.07;;;;;;;;;;5089357;28;20020;-89
2022/03/03 10:15:25;;;;;;;11.48;6.07;;;;;;;;;;5087913;28;20024;-89
2022/03/03 10:17:56;;;;;;;12.68;6.13;;;;;;;;;;5088022;28;20028;-88
2022/03/03 10:20:22;;;;;;;13.88;6.30;;;;;;;;;;5089332;28;20024;-88
2022/03/03 10:22:58;;;;;;;13.40;6.60;;;;;;;;;;5087893;28;20476;-90
2022/03/03 10:25:29;;;;;;;16.45;6.63;;;;;;;;;;5089055;28;20032;-89
2022/03/03 10:27:55;;;;;;;16.65;6.32;;;;;;;;;;5088860;28;20103;-88
2022/03/03 10:30:21;;;;;;;12.18;6.55;;;;;;;;;;5087907;28;20016;-88
2022/03/03 10:32:48;;;;;;;15.07;6.55;;;;;;;;;;5087651;28;20063;-89
2022/03/03 10:35:18;;;;;;;14.65;6.35;;;;;;;;;;5089045;28;20430;-88
2022/03/03 10:37:44;;;;;;;11.18;6.30;;;;;;;;;;5091084;28;20030;-89
2022/03/03 10:40:13;;;;;;;12.32;6.50;;;;;;;;;;5093310;28;20373;-87
2022/03/03 10:42:42;;;;;;;13.68;6.50;;;;;;;;;;5092564;28;20024;-89
2022/03/03 10:45:15;;;;;;;11.45;6.43;;;;;;;;;;5092622;28;20036;-89
2022/03/03 10:47:45;;;;;;;12.55;6.22;;;;;;;;;;5091740;28;20436;-89
2022/03/03 10:50:12;;;;;;;11.15;6.18;;;;;;;;;;5093145;28;20028;-89
2022/03/03 10:52:40;;;;;;;11.25;6.43;;;;;;;;;;5092610;28;20108;-89
2022/03/03 10:55:14;;;;;;;10.45;6.20;;;;;;;;;;5092572;28;20563;-89
2022/03/03 10:57:43;;;;;;;12.25;6.38;;;;;;;;;;5093360;28;20442;-89
2022/03/03 11:00:14;;;;;;;11.68;6.63;;;;;;;;;;5092423;28;20035;-89
2022/03/03 11:02:45;;;;;;;11.77;6.22;;;;;;;;;;5092566;28;20027;-90
2022/03/03 11:05:12;;;;;;;15.73;6.70;;;;;;;;;;5091533;28;20503;-89
2022/03/03 11:07:42;;;;;;;11.35;6.65;;;;;;;;;;5092424;28;20048;-90
2022/03/03 11:10:13;;;;;;;14.65;7.10;;;;;;;;;;5093821;28;20051;-90
2022/03/03 11:12:40;;;;;;;15.52;7.00;;;;;;;;;;5092163;28;20055;-88
2022/03/03 11:15:07;;;;;;;18.70;7.63;;;;;;;;;;5093566;28;20024;-89
2022/03/03 11:17:34;;;;;;;11.52;6.80;;;;;;;;;;5092750;28;20024;-89
2022/03/03 11:20:00;;;;;;;12.73;7.32;;;;;;;;;;5091352;28;20025;-90
2022/03/03 11:22:27;;;;;;;14.82;8.02;;;;;;;;;;5092475;28;20047;-89
2022/03/03 11:24:57;;;;;;;16.60;8.02;;;;;;;;;;5092376;28;20036;-89
2022/03/03 11:27:31;;;;;;;12.80;7.53;;;;;;;;;;5092417;28;20017;-89
2022/03/03 11:30:20;;;;;;;12.10;7.63;;;;;;;;;;5092342;28;20043;-89
2022/03/03 11:32:47;;;;;;;12.70;7.30;;;;;;;;;;5092310;28;20418;-89
2022/03/03 11:35:14;;;;;;;13.35;7.72;;;;;;;;;;5092070;28;20016;-88
2022/03/03 11:37:44;;;;;;;13.43;7.60;;;;;;;;;;5091777;28;20024;-88
2022/03/03 11:40:18;;;;;;;13.30;8.23;;;;;;;;;;5091364;28;20034;-89
2022/03/03 11:42:48;;;;;;;12.98;7.57;;;;;;;;;;5091858;28;20396;-88
2022/03/03 11:45:15;;;;;;;13.90;7.38;;;;;;;;;;5091781;28;20039;-89
2022/03/03 11:47:45;;;;;;;11.20;7.00;;;;;;;;;;5092741;28;20012;-88
2022/03/03 11:50:12;;;;;;;11.98;7.30;;;;;;;;;;5091599;28;20035;-88
2022/03/03 11:52:39;;;;;;;14.00;7.65;;;;;;;;;;5091393;28;20024;-90
2022/03/03 11:55:24;;;;;;;10.05;7.10;;;;;;;;;;5091778;28;20032;-88
2022/03/03 11:57:52;;;;;;;12.80;7.47;;;;;;;;;;5090317;28;20036;-89
2022/03/03 12:00:18;;;;;;;;;;;;;;;;;;5092112;28;20028;-89
2022/03/03 12:02:54;;;;;;;14.13;8.55;;;;;;;;;;5090307;28;20280;-90
2022/03/03 12:05:30;;;;;;;12.60;6.80;;;;;;;;;;5091596;28;20434;-90
2022/03/03 12:07:56;;;;;;;14.70;9.13;;;;;;;;;;5091470;28;20035;-88
2022/03/03 12:10:22;;;;;;;16.48;11.13;;;;;;;;;;5090253;28;20022;-88
2022/03/03 12:12:48;;;;;;;12.93;7.63;;;;;;;;;;5091450;28;20028;-88
2022/03/03 12:15:15;;;;;;;12.52;7.13;;;;;;;;;;5091609;28;20020;-89
2022/03/03 12:17:56;;;;;;;16.02;7.20;;;;;;;;;;5092184;28;20020;-88
2022/03/03 12:23:16;;;;;;;13.18;7.28;;;;;;;;;;5091054;28;20411;-89
2022/03/03 12:25:49;;;;;;;11.00;6.65;;;;;;;;;;5090687;28;20560;-88
2022/03/03 12:28:19;;;;;;;13.50;6.93;;;;;;;;;;5090141;28;20039;-88
2022/03/03 12:30:49;;;;;;;8.55;6.57;;;;;;;;;;5089778;28;20024;-87
2022/03/03 12:33:26;;;;;;;8.38;6.30;;;;;;;;;;5089922;28;20020;-88
2022/03/03 12:35:58;;;;;;;9.07;6.25;;;;;;;;;;5090995;28;20030;-88
2022/03/03 12:38:25;;;;;;;9.95;6.53;;;;;;;;;;5089586;28;20028;-87
2022/03/03 12:40:51;;;;;;;9.40;6.13;;;;;;;;;;5089655;28;20074;-88
2022/03/03 12:43:18;;;;;;;10.48;5.93;;;;;;;;;;5089561;28;20031;-88
2022/03/03 12:45:46;;;;;;;8.88;6.15;;;;;;;;;;5091531;28;20028;-88
2022/03/03 12:48:12;;;;;;;9.73;6.22;;;;;;;;;;5091686;28;20024;-88
2022/03/03 12:50:40;;;;;;;9.48;6.07;;;;;;;;;;5089382;28;20020;-88
2022/03/03 12:53:06;;;;;;;9.50;5.40;;;;;;;;;;5089340;28;20436;-87
2022/03/03 12:55:32;;;;;;;8.82;6.30;;;;;;;;;;5089168;28;20686;-87
2022/03/03 12:57:58;;;;;;;9.15;6.65;;;;;;;;;;5090299;28;20028;-89
2022/03/03 13:00:25;;;;;;;2.38;1.58;;;;;;;;;;5090245;28;20024;-88
2022/03/03 13:02:52;;;;;;;1.08;1.08;;;;;;;;;;5089119;28;20020;-88
2022/03/03 13:05:36;;;;;;;2.65;1.80;;;;;;;;;;5089089;28;20040;-88
2022/03/03 13:08:04;;;;;;;2.40;1.48;;;;;;;;;;5089279;28;20097;-88
2022/03/03 13:10:31;;;;;;;3.63;2.30;;;;;;;;;;5090378;28;20483;-90
2022/03/03 13:12:58;;;;;;;13.20;6.20;;;;;;;;;;5090256;28;20028;-88
2022/03/03 13:15:38;;;;;;;7.75;4.10;;;;;;;;;;5090446;28;20405;-88
2022/03/03 13:18:08;;;;;;;8.07;3.30;;;;;;;;;;5089172;28;20035;-87
2022/03/03 13:20:41;;;;;;;8.75;5.47;;;;;;;;;;5090323;28;20046;-88
2022/03/03 13:23:09;;;;;;;4.85;1.80;;;;;;;;;;5090126;28;20230;-88
2022/03/03 13:25:36;;;;;;;5.60;4.22;;;;;;;;;;5088841;28;20066;-88
2022/03/03 13:28:02;;;;;;;23.75;7.30;;;;;;;;;;5090089;28;20066;-88
2022/03/03 13:30:28;;;;;;;16.95;7.22;;;;;;;;;;5090220;28;20043;-89
2022/03/03 13:32:55;;;;;;;8.27;3.67;;;;;;;;;;5088877;28;20028;-89
2022/03/03 13:35:23;;;;;;;12.38;6.88;;;;;;;;;;5088680;28;20108;-89
2022/03/03 13:37:49;;;;;;;4.43;2.58;;;;;;;;;;5088858;28;20107;-88
2022/03/03 13:40:17;;;;;;;9.70;3.55;;;;;;;;;;5090732;28;20035;-89
2022/03/03 13:42:43;;;;;;;7.23;2.60;;;;;;;;;;5090006;28;20028;-89
2022/03/03 13:45:10;;;;;;;7.93;2.88;;;;;;;;;;5088675;28;20044;-88
2022/03/03 13:47:40;;;;;;;9.07;2.47;;;;;;;;;;5089772;28;20024;-89
2022/03/03 13:50:07;;;;;;;9.73;4.55;;;;;;;;;;5088287;28;20056;-87
2022/03/03 13:52:35;;;;;;;12.52;3.42;;;;;;;;;;5089626;28;20031;-87
2022/03/03 13:55:09;;;;;;;9.73;3.17;;;;;;;;;;5089639;28;20048;-87
2022/03/03 13:57:35;;;;;;;10.57;3.95;;;;;;;;;;5089338;28;20032;-87
2022/03/03 14:00:02;;;;;;;12.25;4.65;;;;;;;;;;5089381;28;20050;-88
2022/03/03 14:02:28;;;;;;;8.60;3.53;;;;;;;;;;5089427;28;20100;-88
2022/03/03 14:05:01;;;;;;;13.55;3.28;;;;;;;;;;5088030;28;20031;-89
2022/03/03 14:07:29;;;;;;;11.82;5.82;;;;;;;;;;5089514;28;20020;-88
2022/03/03 14:10:05;;;;;;;11.48;3.10;;;;;;;;;;5089443;28;20048;-87
2022/03/03 14:12:32;;;;;;;8.27;3.20;;;;;;;;;;5088861;28;20020;-88
2022/03/03 14:14:58;;;;;;;7.55;4.57;;;;;;;;;;5089298;28;20020;-88
2022/03/03 14:17:24;;;;;;;8.55;3.58;;;;;;;;;;5089345;28;20020;-87
2022/03/03 14:19:50;;;;;;;7.20;3.17;;;;;;;;;;5090162;28;20021;-87
2022/03/03 14:22:21;;;;;;;10.10;3.60;;;;;;;;;;5089995;28;20028;-87
2022/03/03 14:24:48;;;;;;;13.98;4.75;;;;;;;;;;5089961;28;20031;-88
2022/03/03 14:27:15;;;;;;;9.50;3.03;;;;;;;;;;5089148;28;20020;-87
2022/03/03 14:29:41;;;;;;;8.63;4.30;;;;;;;;;;5088023;28;20027;-87
2022/03/03 14:32:07;;;;;;;10.50;3.83;;;;;;;;;;5089097;28;20047;-87
2022/03/03 14:34:33;;;;;;;12.48;3.83;;;;;;;;;;5087992;28;20555;-88
2022/03/03 14:36:59;;;;;;;9.50;2.90;;;;;;;;;;5088998;28;20028;-89